FW6720 Weather Reports


Display with metric or nautical units.
time (UTC)temp
F
wind
direction
speed
MPH
gust
MPH
rain 1hr
in
rain 24hr
in
rain mn
in
humidity
%
barometer
mb
20260506222533 67 10 0.0 0.0 0.00 0.00 0.00 61 1022.3
20260506222029 66 9 0.0 0.0 0.00 0.00 0.00 63 1022.6
20260506221527 67 10 0.0 0.0 0.00 0.00 0.00 62 1022.6
20260506221025 68 13 0.0 0.0 0.00 0.00 0.00 62 1022.5
20260506220520 68 11 0.0 0.0 0.00 0.00 0.00 62 1022.3
20260506220016 69 11 0.0 0.0 0.00 0.00 0.00 60 1022.4
20260506215513 68 14 0.0 0.0 0.00 0.00 0.00 61 1022.3
20260506215009 67 13 0.0 0.0 0.00 0.00 0.00 62 1022.2
20260506214506 67 165 0.0 0.0 0.00 0.00 0.00 63 1022.4
20260506214003 67 165 0.0 0.0 0.00 0.00 0.00 63 1022.2
20260506213501 67 23 0.0 0.0 0.00 0.00 0.00 65 1022.4
20260506212958 67 19 0.0 0.0 0.00 0.00 0.00 62 1022.3
20260506212454 68 20 0.0 0.0 0.00 0.00 0.00 65 1022.5
20260506211949 68 120 0.0 0.0 0.00 0.00 0.00 66 1022.5
20260506211445 67 121 0.0 0.0 0.00 0.00 0.00 65 1022.2
20260506210942 67 121 0.0 0.0 0.00 0.00 0.00 66 1022.2
20260506210439 67 65 0.0 0.0 0.00 0.00 0.00 68 1022.3
20260506205936 70 80 0.0 1.0 0.00 0.00 0.00 61 1022.3
20260506205432 69 54 0.0 0.0 0.00 0.00 0.00 63 1022.3
20260506204928 67 7 0.0 0.0 0.00 0.00 0.00 67 1022.3
20260506204426 68 5 0.0 0.0 0.00 0.00 0.00 64 1022.3
20260506203924 67 18 0.0 0.0 0.00 0.00 0.00 64 1022.3
20260506203420 68 29 0.0 1.0 0.00 0.00 0.00 63 1022.3
20260506202917 69 146 0.0 0.0 0.00 0.00 0.00 62 1022.3
20260506202415 70 14 0.0 0.0 0.00 0.00 0.00 63 1022.4
20260506201911 66 13 0.0 0.0 0.00 0.00 0.00 67 1022.4
20260506201409 65 10 0.0 0.0 0.00 0.00 0.00 67 1022.4
20260506200905 65 8 0.0 0.0 0.00 0.00 0.00 67 1022.5
20260506200401 65 7 0.0 0.0 0.00 0.00 0.00 69 1022.7
20260506195858 65 9 0.0 0.0 0.00 0.00 0.00 68 1022.3
20260506195355 68 46 0.0 0.0 0.00 0.00 0.00 67 1022.5
20260506194851 66 51 0.0 0.0 0.00 0.00 0.00 66 1022.4
20260506194348 66 73 0.0 1.0 0.00 0.00 0.00 67 1022.1
20260506193846 66 17 0.0 0.0 0.00 0.00 0.00 70 1022.3
20260506193342 64 9 0.0 0.0 0.00 0.00 0.00 71 1022.4
20260506192839 64 8 0.0 0.0 0.00 0.00 0.00 71 1022.4
20260506192336 65 8 0.0 0.0 0.00 0.00 0.00 68 1022.6
20260506191833 66 9 0.0 0.0 0.00 0.00 0.00 67 1022.6
20260506191329 66 8 0.0 0.0 0.00 0.00 0.00 66 1022.4
20260506190826 65 11 0.0 0.0 0.00 0.00 0.00 67 1022.5
20260506190322 65 9 0.0 0.0 0.00 0.00 0.00 68 1022.5
20260506185819 66 9 0.0 0.0 0.00 0.00 0.00 67 1022.6
20260506185316 66 111 0.0 0.0 0.00 0.00 0.00 66 1022.5
20260506184813 66 131 0.0 0.0 0.00 0.00 0.00 67 1022.5
20260506184311 67 133 1.0 1.0 0.00 0.00 0.00 67 1022.4
20260506183808 66 87 1.0 2.0 0.00 0.00 0.00 65 1022.5
20260506183303 66 305 1.0 1.0 0.00 0.00 0.00 66 1022.6
20260506182800 66 126 0.0 0.0 0.00 0.00 0.00 66 1022.7
20260506182257 65 120 0.0 0.0 0.00 0.00 0.00 67 1022.3
20260506181755 65 269 1.0 1.0 0.00 0.00 0.00 67 1022.5
20260506181253 64 53 0.0 0.0 0.00 0.00 0.00 70 1022.4
20260506180749 64 65 0.0 1.0 0.00 0.00 0.00 69 1022.7
20260506180245 63 25 0.0 0.0 0.00 0.00 0.00 71 1022.5
20260506175742 62 24 0.0 0.0 0.00 0.00 0.00 72 1022.4
20260506175239 64 19 0.0 0.0 0.00 0.00 0.00 71 1022.2
20260506174737 64 35 0.0 0.0 0.00 0.00 0.00 68 1022.4
20260506174233 64 22 0.0 0.0 0.00 0.00 0.00 69 1022.2
20260506173732 64 22 0.0 0.0 0.00 0.00 0.00 68 1022.0
20260506173228 63 52 0.0 0.0 0.00 0.00 0.00 68 1022.2
20260506172724 63 52 0.0 0.0 0.00 0.00 0.00 69 1022.2
20260506172221 62 15 0.0 0.0 0.00 0.00 0.00 72 1022.3
20260506171719 61 14 0.0 0.0 0.00 0.00 0.00 72 1022.4
20260506171216 62 107 0.0 0.0 0.00 0.00 0.00 70 1022.2
20260506170713 62 59 0.0 0.0 0.00 0.00 0.00 71 1022.6
20260506170210 61 61 0.0 0.0 0.00 0.00 0.00 72 1022.3
20260506165708 59 19 0.0 0.0 0.00 0.00 0.00 74 1022.6
20260506165205 59 16 0.0 1.0 0.00 0.00 0.00 75 1022.6
20260506164702 60 16 1.0 1.0 0.00 0.00 0.00 73 1022.5
20260506164159 58 21 0.0 0.0 0.00 0.00 0.00 76 1022.6
20260506163655 58 17 0.0 0.0 0.00 0.00 0.00 76 1022.6
20260506163151 59 16 0.0 0.0 0.00 0.00 0.00 75 1022.4
20260506162647 59 19 0.0 0.0 0.00 0.00 0.00 74 1022.5
20260506162144 57 17 0.0 0.0 0.00 0.00 0.00 76 1022.1
20260506161641 57 16 0.0 0.0 0.00 0.00 0.00 76 1022.5
20260506161138 57 16 0.0 0.0 0.00 0.00 0.00 77 1022.2
20260506160636 57 16 0.0 0.0 0.00 0.00 0.00 76 1022.4
20260506160132 57 15 0.0 0.0 0.00 0.00 0.00 75 1022.5
20260506155631 57 15 0.0 0.0 0.00 0.00 0.00 78 1022.5
20260506155128 55 15 0.0 0.0 0.00 0.00 0.00 79 1022.0
20260506153230 55 14 0.0 0.0 0.00 0.00 0.00 80 1022.3
20260506152727 55 14 0.0 0.0 0.00 0.00 0.00 80 1022.3
20260506152224 55 14 0.0 0.0 0.00 0.00 0.00 78 1021.8
20260506151724 55 15 0.0 0.0 0.00 0.00 0.00 79 1021.9
20260506151219 54 14 0.0 0.0 0.00 0.00 0.00 78 1021.7
20260506150716 54 15 0.0 0.0 0.00 0.00 0.00 79 1021.7
20260506150213 54 14 0.0 0.0 0.00 0.00 0.00 80 1021.7
20260506145710 54 15 0.0 0.0 0.00 0.00 0.00 80 1022.0
20260506145207 54 14 0.0 0.0 0.00 0.00 0.00 79 1022.1
20260506144704 54 15 0.0 0.0 0.00 0.00 0.00 82 1022.2
20260506144201 54 15 0.0 0.0 0.00 0.00 0.00 80 1022.4
20260506143659 54 15 0.0 0.0 0.00 0.00 0.00 81 1022.3
20260506143156 54 15 0.0 0.0 0.00 0.00 0.00 83 1022.5
20260506142655 54 15 0.0 0.0 0.00 0.00 0.00 84 1022.5
20260506142152 53 15 0.0 0.0 0.00 0.00 0.00 84 1022.4
20260506141650 53 15 0.0 0.0 0.00 0.00 0.00 86 1022.5
20260506141148 53 15 0.0 0.0 0.00 0.00 0.00 86 1022.2
20260506140645 53 15 0.0 0.0 0.00 0.00 0.00 87 1022.4
20260506140142 53 15 0.0 0.0 0.00 0.00 0.00 87 1022.3
20260506135639 53 15 0.0 0.0 0.00 0.00 0.00 87 1022.3
20260506135135 53 15 0.0 0.0 0.00 0.00 0.00 87 1022.3
20260506134632 53 15 0.0 0.0 0.00 0.00 0.00 87 1022.3
20260506134127 53 15 0.0 0.0 0.00 0.00 0.00 88 1021.7
20260506133625 53 15 0.0 0.0 0.00 0.00 0.00 88 1021.9
20260506133122 53 15 0.0 0.0 0.00 0.00 0.00 87 1021.7
20260506132619 53 15 0.0 0.0 0.00 0.00 0.00 87 1021.6
20260506132116 53 15 0.0 0.0 0.00 0.00 0.00 87 1021.7
20260506131613 53 15 0.0 0.0 0.00 0.00 0.00 88 1021.8
20260506131110 53 15 0.0 0.0 0.00 0.00 0.00 88 1021.7
20260506130607 52 15 0.0 0.0 0.00 0.00 0.00 87 1021.6
20260506130104 53 15 0.0 0.0 0.00 0.00 0.00 88 1021.6
20260506125603 53 16 0.0 0.0 0.00 0.00 0.00 88 1021.4
20260506125100 53 16 0.0 0.0 0.00 0.00 0.00 88 1021.4
20260506124557 53 16 0.0 0.0 0.00 0.00 0.00 87 1021.4
20260506124055 53 16 0.0 0.0 0.00 0.00 0.00 87 1021.2
20260506123552 53 16 0.0 0.0 0.00 0.00 0.00 87 1021.4
20260506123051 53 16 0.0 0.0 0.00 0.00 0.00 87 1021.1
20260506122547 53 16 0.0 0.0 0.00 0.00 0.00 87 1021.3
20260506122045 53 16 0.0 0.0 0.00 0.00 0.00 87 1021.3
20260506121542 53 16 0.0 0.0 0.00 0.00 0.00 87 1021.3
20260506121038 53 16 0.0 0.0 0.00 0.00 0.00 86 1021.2
20260506120537 53 16 0.0 0.0 0.00 0.00 0.00 86 1020.9
20260506120034 53 16 0.0 0.0 0.00 0.00 0.00 86 1021.2
20260506115532 53 16 0.0 0.0 0.00 0.00 0.00 85 1021.1
20260506115030 53 16 0.0 0.0 0.00 0.00 0.00 85 1021.2
20260506114527 54 16 0.0 0.0 0.00 0.00 0.00 85 1021.1
20260506114025 54 16 0.0 0.0 0.00 0.00 0.00 84 1021.1
20260506113523 54 16 0.0 0.0 0.00 0.00 0.00 85 1021.1
20260506113020 53 16 0.0 0.0 0.00 0.00 0.00 84 1021.0
20260506112516 53 16 0.0 0.0 0.00 0.00 0.00 86 1020.9
20260506112014 54 16 0.0 0.0 0.00 0.00 0.00 86 1021.0
20260506111512 54 16 0.0 0.0 0.00 0.00 0.00 86 1021.0
20260506111008 54 16 0.0 0.0 0.00 0.00 0.00 86 1020.9
20260506110506 54 16 0.0 0.0 0.00 0.00 0.00 86 1020.8
20260506110003 54 16 0.0 0.0 0.00 0.00 0.00 85 1020.9
20260506105459 54 16 0.0 0.0 0.00 0.00 0.00 85 1020.9
20260506104957 54 16 0.0 0.0 0.00 0.00 0.00 85 1020.8
20260506104455 54 16 0.0 0.0 0.00 0.00 0.00 86 1020.6
20260506103953 54 16 0.0 0.0 0.00 0.00 0.00 85 1020.7
20260506103449 54 16 0.0 0.0 0.00 0.00 0.00 85 1020.6
20260506102946 54 16 0.0 0.0 0.00 0.00 0.00 85 1020.8
20260506102444 54 16 0.0 0.0 0.00 0.00 0.00 85 1020.6
20260506101941 54 16 0.0 0.0 0.00 0.00 0.00 85 1020.4
20260506101438 54 16 0.0 0.0 0.00 0.00 0.00 85 1020.5
20260506100935 54 16 0.0 0.0 0.00 0.00 0.00 85 1020.6
20260506100433 54 16 0.0 0.0 0.00 0.00 0.00 85 1020.4
20260506095931 54 16 0.0 0.0 0.00 0.00 0.00 86 1020.4
20260506095429 54 16 0.0 0.0 0.00 0.00 0.00 86 1020.4
20260506094925 54 16 0.0 0.0 0.00 0.00 0.00 85 1020.0
20260506094424 54 16 0.0 0.0 0.00 0.00 0.00 86 1020.1
20260506093921 54 16 0.0 0.0 0.00 0.00 0.00 85 1020.1
20260506093419 55 16 0.0 0.0 0.00 0.00 0.00 85 1020.2
20260506092917 55 16 0.0 0.0 0.00 0.00 0.00 85 1019.9
20260506092414 54 16 0.0 0.0 0.00 0.00 0.00 85 1020.1
20260506091911 55 16 0.0 0.0 0.00 0.00 0.00 85 1020.2
20260506091409 55 16 0.0 0.0 0.00 0.00 0.00 85 1020.0
20260506090905 55 16 0.0 0.0 0.00 0.00 0.00 85 1020.1
20260506090403 55 16 0.0 0.0 0.00 0.00 0.00 85 1020.0
20260506085900 55 16 0.0 0.0 0.00 0.00 0.00 85 1019.8
20260506085356 55 16 0.0 0.0 0.00 0.00 0.00 85 1020.0
20260506084853 55 16 0.0 0.0 0.00 0.00 0.00 84 1019.9
20260506084349 55 16 0.0 0.0 0.00 0.00 0.00 84 1020.0
20260506083846 55 16 0.0 0.0 0.00 0.00 0.00 84 1019.9
20260506083344 55 16 0.0 0.0 0.00 0.00 0.00 84 1020.0
20260506082841 55 16 0.0 0.0 0.00 0.00 0.00 84 1020.0
20260506082337 55 16 0.0 0.0 0.00 0.00 0.00 85 1020.0
20260506081833 55 16 0.0 0.0 0.00 0.00 0.00 85 1019.9
20260506081332 55 16 0.0 0.0 0.00 0.00 0.00 84 1019.9
20260506080829 55 16 0.0 0.0 0.00 0.00 0.00 85 1019.8
20260506080325 55 16 0.0 0.0 0.00 0.00 0.00 85 1020.0
20260506073310 55 16 0.0 0.0 0.00 0.00 0.00 86 1019.5
20260506072806 55 16 0.0 0.0 0.00 0.00 0.00 86 1019.6
20260506072305 55 16 0.0 0.0 0.00 0.00 0.00 86 1019.6
20260506071802 55 16 0.0 0.0 0.00 0.00 0.00 86 1019.4
20260506071300 55 16 0.0 0.0 0.00 0.00 0.00 86 1019.3
20260506070756 55 16 0.0 0.0 0.00 0.00 0.00 86 1019.4
20260506070253 55 16 0.0 0.0 0.00 0.00 0.00 86 1019.5
20260506062230 56 16 0.0 0.0 0.00 0.00 0.00 83 1019.4
20260506061726 56 16 0.0 0.0 0.00 0.00 0.00 83 1019.3
20260506061224 56 16 0.0 0.0 0.00 0.00 0.00 83 1019.1
20260506060722 57 16 0.0 0.0 0.00 0.00 0.00 83 1019.3
20260506060219 57 16 0.0 0.0 0.00 0.00 0.00 83 1019.3
20260506051151 57 16 0.0 0.0 0.00 0.00 0.00 86 1019.0
20260506050649 57 17 0.0 0.0 0.00 0.00 0.00 86 1019.0
20260506050146 57 16 0.0 0.0 0.00 0.00 0.00 86 1018.9
20260506044637 57 16 0.0 0.0 0.00 0.00 0.00 86 1018.8
20260506044134 57 16 0.0 0.0 0.00 0.00 0.00 86 1018.8
20260506043631 57 16 0.0 0.0 0.00 0.00 0.00 86 1018.7
20260506043129 57 16 0.0 0.0 0.00 0.00 0.00 86 1018.8
20260506042627 57 16 0.0 0.0 0.00 0.00 0.00 86 1018.6
20260506042125 57 16 0.0 0.0 0.00 0.00 0.00 86 1018.5
20260506041624 57 16 0.0 0.0 0.00 0.00 0.00 86 1018.4
20260506041120 57 16 0.0 0.0 0.00 0.00 0.00 86 1018.5
20260506040618 57 16 0.0 0.0 0.00 0.00 0.00 86 1018.4
20260506040114 57 16 0.0 0.0 0.00 0.00 0.00 86 1018.5
20260506035611 57 16 0.0 0.0 0.00 0.00 0.00 86 1018.2
20260506035108 57 16 0.0 0.0 0.00 0.00 0.00 86 1018.1
20260506034605 57 16 0.0 0.0 0.00 0.00 0.00 86 1018.1
20260506034102 57 16 0.0 0.0 0.00 0.00 0.00 85 1018.1
20260506033559 57 16 0.0 0.0 0.00 0.00 0.00 85 1017.9
20260506033056 57 16 0.0 0.0 0.00 0.00 0.00 84 1017.7
20260506032553 58 16 0.0 0.0 0.00 0.00 0.00 84 1018.0
20260506032050 58 16 0.0 0.0 0.00 0.00 0.00 83 1017.6
20260506031548 58 16 0.0 0.0 0.00 0.00 0.00 83 1017.5
20260506031044 59 15 0.0 0.0 0.00 0.00 0.00 82 1017.5
20260506030543 59 15 0.0 0.0 0.00 0.00 0.00 82 1017.6
20260506030039 59 15 0.0 0.0 0.00 0.00 0.00 81 1017.4
20260506025536 60 15 0.0 0.0 0.00 0.00 0.00 80 1017.3
20260506025032 61 15 0.0 0.0 0.00 0.00 0.00 78 1017.3
20260506024530 61 15 0.0 0.0 0.00 0.00 0.00 76 1017.5
20260506024026 62 15 0.0 0.0 0.00 0.00 0.00 75 1017.2
20260506023522 62 15 0.0 0.0 0.00 0.00 0.00 76 1017.2
20260506023020 62 15 0.0 0.0 0.00 0.00 0.00 76 1017.1
20260506022517 62 15 0.0 0.0 0.00 0.00 0.00 75 1017.0
20260506022014 63 15 0.0 0.0 0.00 0.00 0.00 74 1017.0
20260506021512 63 15 0.0 0.0 0.00 0.00 0.00 73 1016.9
20260506021009 63 15 0.0 0.0 0.00 0.00 0.00 72 1017.2
20260506020507 63 15 0.0 0.0 0.00 0.00 0.00 72 1017.1
20260506020004 64 15 0.0 0.0 0.00 0.00 0.00 71 1017.2
20260506015501 64 15 0.0 0.0 0.00 0.00 0.00 71 1017.0
20260506014958 64 15 0.0 0.0 0.00 0.00 0.00 70 1017.0
20260506014455 64 15 0.0 0.0 0.00 0.00 0.00 70 1017.0
20260506013951 64 15 0.0 0.0 0.00 0.00 0.00 70 1017.2
20260506013449 64 14 0.0 0.0 0.00 0.00 0.00 69 1017.0
20260506012945 65 14 0.0 0.0 0.00 0.00 0.00 70 1016.9
20260506012442 65 15 0.0 1.0 0.00 0.00 0.00 68 1017.1
20260506011939 65 13 0.0 0.0 0.00 0.00 0.00 71 1017.0
20260506011436 65 14 0.0 0.0 0.00 0.00 0.00 68 1017.2
20260506010933 65 13 0.0 0.0 0.00 0.00 0.00 69 1017.1
20260506010432 65 13 0.0 0.0 0.00 0.00 0.00 69 1016.9
20260506005927 65 13 0.0 0.0 0.00 0.00 0.00 68 1017.0
20260506005426 65 13 0.0 0.0 0.00 0.00 0.00 67 1017.0
20260506004920 65 13 0.0 0.0 0.00 0.00 0.00 68 1017.1
20260506004419 66 13 0.0 0.0 0.00 0.00 0.00 68 1017.0
20260506003914 66 13 0.0 0.0 0.00 0.00 0.00 68 1016.9
20260506003411 66 13 0.0 0.0 0.00 0.00 0.00 67 1017.2
20260506002908 66 56 0.0 0.0 0.00 0.00 0.00 67 1017.0
20260506002404 66 60 0.0 0.0 0.00 0.00 0.00 67 1016.7
20260506001859 66 7 0.0 0.0 0.00 0.00 0.00 68 1017.1
20260506001356 66 7 0.0 0.0 0.00 0.00 0.00 65 1017.0
20260506000853 66 5 0.0 0.0 0.00 0.00 0.00 66 1016.9
20260506000353 66 5 0.0 0.0 0.00 0.00 0.00 66 1017.0
20260505235848 66 7 0.0 0.0 0.00 0.00 0.00 67 1016.9
20260505235345 66 8 0.0 0.0 0.00 0.00 0.00 66 1017.2
20260505234842 66 5 2.0 3.0 0.00 0.00 0.00 65 1017.2
20260505234340 66 56 0.0 0.0 0.00 0.00 0.00 66 1017.2
20260505233836 66 35 0.0 0.0 0.00 0.00 0.00 66 1017.1
20260505233334 66 64 0.0 1.0 0.00 0.00 0.00 65 1017.4
20260505232832 66 62 0.0 0.0 0.00 0.00 0.00 65 1017.2
20260505232330 67 29 0.0 1.0 0.00 0.00 0.00 64 1017.4
20260505231826 67 30 0.0 0.0 0.00 0.00 0.00 65 1017.3
20260505231324 66 133 1.0 1.0 0.00 0.00 0.00 67 1017.5
20260505230822 66 26 0.0 0.0 0.00 0.00 0.00 66 1017.5
20260505230318 66 23 0.0 1.0 0.00 0.00 0.00 65 1017.5
20260505225815 66 48 0.0 0.0 0.00 0.00 0.00 65 1017.9
20260505225312 67 74 0.0 0.0 0.00 0.00 0.00 65 1017.5
20260505224807 67 24 0.0 2.0 0.00 0.00 0.00 64 1017.7
20260505224305 67 23 0.0 0.0 0.00 0.00 0.00 64 1017.7
20260505223802 66 302 1.0 2.0 0.00 0.00 0.00 65 1017.7
20260505223259 66 26 0.0 0.0 0.00 0.00 0.00 65 1018.0
20260505222755 66 26 0.0 0.0 0.00 0.00 0.00 64 1017.5